Flight Track Log - Related Links

Times and Time Zones

All times are in EDT time to prevent confusion due to time zone crossing. See the CSH9219 flight status page for this flight to view local times or setup timezone preferences in your user account.

Time Position Orientation Groundspeed Altitude Reporting Facility
EDT Latitude Longitude Course Direction KTS MPH feet Rate Location/Type
Wed 07:26:00 AM 43.3243 86.7391 223° Southwest  Level Estimated
Wed 07:27:00 AM 43.2511 86.6482 222° Southwest  Level Estimated
Wed 07:28:00 AM 43.1778 86.5575 222° Southwest  Level Estimated
Wed 07:29:00 AM 43.1045 86.4670 222° Southwest  Level Estimated
Wed 07:30:00 AM 43.0311 86.3768 222° Southwest  Level Estimated
Wed 07:31:00 AM 42.9576 86.2867 222° Southwest  Level Estimated
Wed 07:32:00 AM 42.8841 86.1969 222° Southwest  Level Estimated
Wed 07:33:00 AM 42.8105 86.1073 222° Southwest  Level Estimated
Wed 07:34:00 AM 42.7368 86.0179 222° Southwest  Level Estimated
Wed 07:35:00 AM 42.6631 85.9287 222° Southwest  Level Estimated
Wed 07:36:00 AM 42.5892 85.8398 222° Southwest  Level Estimated
Wed 07:37:00 AM 42.5154 85.7510 222° Southwest  Level Estimated
Wed 07:38:00 AM 42.4414 85.6625 221° Southwest  Level Estimated
Wed 07:39:00 AM 42.3674 85.5741 221° Southwest  Level Estimated
Wed 07:40:00 AM 42.2933 85.4860 221° Southwest  Level Estimated
Wed 07:41:00 AM 42.2191 85.3981 221° Southwest  Level Estimated
Wed 07:42:00 AM 42.1449 85.3103 221° Southwest  Level Estimated
Wed 07:43:00 AM 42.0706 85.2228 221° Southwest  Level Estimated
Wed 07:44:00 AM 41.9963 85.1355 221° Southwest  Level Estimated
Wed 07:45:00 AM 41.9218 85.0484 221° Southwest  Level Estimated
Wed 07:46:00 AM 41.8474 84.9615 221° Southwest  Level Estimated
Wed 07:47:00 AM 41.7728 84.8748 221° Southwest  Level Estimated
Wed 07:48:00 AM 41.6982 84.7883 221° Southwest  Level Estimated
Wed 07:49:00 AM 41.6235 84.7020 221° Southwest  Level Estimated
Wed 07:50:00 AM 41.5488 84.6159 221° Southwest  Level Estimated
Wed 07:51:00 AM 41.4739 84.5300 221° Southwest  Level Estimated
Wed 07:52:00 AM 41.3991 84.4443 221° Southwest  Level Estimated
Wed 07:53:00 AM 41.3241 84.3588 221° Southwest  Level Estimated
Wed 07:54:00 AM 41.2491 84.2735 221° Southwest  Level Estimated
Wed 07:55:00 AM 41.1741 84.1884 220° Southwest  Level Estimated
Wed 07:56:00 AM 41.0989 84.1035 220° Southwest  Level Estimated
Wed 07:57:00 AM 41.0237 84.0188 220° Southwest  Level Estimated
Wed 07:58:00 AM 40.9485 83.9342 220° Southwest  Level Estimated
Wed 07:59:00 AM 40.8732 83.8499 220° Southwest  Level Estimated
Wed 08:00:00 AM 40.7978 83.7657 220° Southwest  Level Estimated
Wed 08:01:00 AM 40.7224 83.6818 220° Southwest  Level Estimated
Wed 08:02:00 AM 40.6469 83.5980 220° Southwest  Level Estimated
Wed 08:03:00 AM 40.5713 83.5145 220° Southwest  Level Estimated
Wed 08:04:00 AM 40.4957 83.4311 220° Southwest  Level Estimated
Wed 08:05:00 AM 40.4200 83.3479 220° Southwest  Level Estimated
Wed 08:06:00 AM 40.3443 83.2649 220° Southwest  Level Estimated
Wed 08:07:00 AM 40.2685 83.1821 220° Southwest  Level Estimated
Wed 08:08:00 AM 40.1926 83.0994 220° Southwest  Level Estimated
Wed 08:09:00 AM 40.1167 83.0170 220° Southwest  Level Estimated
Wed 08:10:00 AM 40.0407 82.9347 220° Southwest  Level Estimated
Wed 08:11:00 AM 39.9647 82.8526 220° Southwest  Level Estimated
Wed 08:12:00 AM 39.8886 82.7707 220° Southwest  Level Estimated
Wed 08:13:00 AM 39.8125 82.6890 220° Southwest  Level Estimated
Wed 08:14:00 AM 39.7363 82.6075 219° Southwest  Level Estimated
Wed 08:15:00 AM 39.6600 82.5261 219° Southwest  Level Estimated
Wed 08:16:00 AM 39.5837 82.4449 219° Southwest  Level Estimated
Wed 08:17:00 AM 39.5074 82.3639 219° Southwest  Level Estimated
Wed 08:18:00 AM 39.4309 82.2831 219° Southwest  Level Estimated
Wed 08:19:00 AM 39.3544 82.2024 219° Southwest  Level Estimated
Wed 08:20:00 AM 39.2779 82.1220 219° Southwest  Level Estimated
Wed 08:21:00 AM 39.2013 82.0417 219° Southwest  Level Estimated
Wed 08:22:00 AM 39.1247 81.9615 219° Southwest  Level Estimated
Wed 08:23:00 AM 39.0480 81.8816 219° Southwest  Level Estimated
Wed 08:24:00 AM 38.9712 81.8018 219° Southwest  Level Estimated
Wed 08:25:00 AM 38.8944 81.7222 219° Southwest  Level Estimated
Wed 08:26:00 AM 38.8175 81.6428 219° Southwest  Level Estimated
Wed 08:27:00 AM 38.7406 81.5635 219° Southwest  Level Estimated
Wed 08:28:00 AM 38.6636 81.4845 219° Southwest  Level Estimated
Wed 08:29:00 AM 38.5866 81.4055 219° Southwest  Level Estimated
Wed 08:30:00 AM 38.5095 81.3268 219° Southwest  Level Estimated
Wed 08:31:00 AM 38.4324 81.2482 219° Southwest  Level Estimated
Wed 08:32:00 AM 38.3552 81.1698 219° Southwest  Level Estimated
Wed 08:33:00 AM 38.2780 81.0916 219° Southwest  Level Estimated
Wed 08:34:00 AM 38.2007 81.0135 218° Southwest  Level Estimated
Wed 08:35:00 AM 38.1233 80.9356 218° Southwest  Level Estimated
Wed 08:36:00 AM 38.0460 80.8578 218° Southwest  Level Estimated
Wed 08:37:00 AM 37.9685 80.7802 218° Southwest  Level Estimated
Wed 08:38:00 AM 37.8910 80.7028 218° Southwest  Level Estimated
Wed 08:39:00 AM 37.8135 80.6256 218° Southwest  Level Estimated
Wed 08:40:00 AM 37.7359 80.5485 218° Southwest  Level Estimated
Wed 08:41:00 AM 37.6582 80.4715 218° Southwest  Level Estimated
Wed 08:42:00 AM 37.5806 80.3948 218° Southwest  Level Estimated
Wed 08:43:00 AM 37.5028 80.3182 218° Southwest  Level Estimated
Wed 08:44:00 AM 37.4250 80.2417 218° Southwest  Level Estimated
Wed 08:45:00 AM 37.3472 80.1654 218° Southwest  Level Estimated
Wed 08:46:00 AM 37.2693 80.0893 218° Southwest  Level Estimated
Wed 08:47:00 AM 37.1913 80.0133 218° Southwest  Level Estimated
Wed 08:48:00 AM 37.1134 79.9375 218° Southwest  Level Estimated
Wed 08:49:00 AM 37.0385 79.8649 218° Southwest  Level Estimated
Wed 08:50:00 AM 37.0385 79.8649 50° Northeast  Level Estimated
Wed 08:51:00 AM 37.0385 79.8649 50° Northeast  Level Estimated
Wed 08:52:00 AM 37.0385 79.8649 50° Northeast  Level Estimated
Wed 08:53:00 AM 37.0385 79.8649 50° Northeast  Level Estimated
Wed 08:54:00 AM 37.0385 79.8649 50° Northeast  Level Estimated
Wed 08:55:00 AM 37.0385 79.8649 50° Northeast  Level Estimated
Wed 08:56:00 AM 37.0385 79.8649 50° Northeast  Level Estimated

Login

Don't have an account? Register now (free) for customized features, flight alerts, and more!